Andover, Illinois
Current Conditions -  °F | °C
As of 10:52 PM on Monday 22 Dec 2014 (Local Time) from KMLI Reporting Station
Light Rain Light Rain  
Wind Chill: 38°   Ceiling: 400
Heat Index: 42°   Visibility: 4mi
Dew Point: 41°   Wind: 7mph
Humidity: 96%   Direction: 100°E
Pressure: 29.48"   Gusts: NA
Location:  41.29°N, 90.29°W
Report Text: KMLI 230452Z AUTO 10006KT 4SM -RA BR OVC004 06/05 A2948 RMK AO2 RAB03 SLP985 P0001 T00560050
Loading
Personal Weather Stations






























Interactive Weather Map New forecast layout! Learn more

10-Day Weather Forecast

Advertisements
Track Severe Weather on mobile